Time,TemperatureF,DewpointF,PressureIn,WindDirection,WindDirectionDegrees,WindSpeedMPH,WindSpeedGustMPH,Humidity,HourlyPrecipIn,Conditions,Clouds,dailyrainin,SolarRadiationWatts/m^2,SoftwareType,DateUTC
2013-09-11 00:13:00,73.0,69.0,-100.00,West,280,1.0,5.0,88,0.00,,,0.00,0.000000,,2013-09-11 05:13:00,
2013-09-11 00:23:00,73.0,69.0,-100.00,West,280,1.0,5.0,88,0.00,,,0.00,0.000000,,2013-09-11 05:23:00,
2013-09-11 00:34:00,73.0,69.0,-100.00,West,280,1.0,5.0,88,0.00,,,0.00,0.000000,,2013-09-11 05:34:00,
2013-09-11 00:42:00,73.0,69.0,-100.00,West,280,1.0,5.0,88,0.00,,,0.00,0.000000,,2013-09-11 05:42:00,
2013-09-11 01:12:00,72.0,70.0,-100.00,South,169,2.0,4.0,92,0.00,,,0.00,0.000000,,2013-09-11 06:12:00,
2013-09-11 01:22:00,72.0,70.0,-100.00,South,169,2.0,4.0,92,0.00,,,0.00,0.000000,,2013-09-11 06:22:00,
2013-09-11 01:32:00,72.0,70.0,-100.00,South,169,2.0,4.0,92,0.00,,,0.00,0.000000,,2013-09-11 06:32:00,
2013-09-11 01:42:00,72.0,70.0,-100.00,South,169,2.0,4.0,92,0.00,,,0.00,0.000000,,2013-09-11 06:42:00,
2013-09-11 02:12:00,72.0,70.0,-100.00,SW,220,3.0,7.0,93,0.02,,,0.02,0.000000,,2013-09-11 07:12:00,
2013-09-11 02:23:00,72.0,70.0,-100.00,SW,220,3.0,7.0,93,0.02,,,0.02,0.000000,,2013-09-11 07:23:00,
2013-09-11 02:32:00,72.0,70.0,-100.00,SW,220,3.0,7.0,93,0.02,,,0.02,0.000000,,2013-09-11 07:32:00,
2013-09-11 02:42:00,72.0,70.0,-100.00,SW,220,3.0,7.0,93,0.02,,,0.02,0.000000,,2013-09-11 07:42:00,
2013-09-11 03:12:00,71.0,71.0,-100.00,SSW,197,0.0,4.0,99,0.01,,,0.03,0.000000,,2013-09-11 08:12:00,
2013-09-11 03:22:00,71.0,71.0,-100.00,SSW,197,0.0,4.0,99,0.01,,,0.03,0.000000,,2013-09-11 08:22:00,
2013-09-11 03:32:00,71.0,71.0,-100.00,SSW,197,0.0,4.0,99,0.01,,,0.03,0.000000,,2013-09-11 08:32:00,
2013-09-11 03:42:00,71.0,71.0,-100.00,SSW,197,0.0,4.0,99,0.01,,,0.03,0.000000,,2013-09-11 08:42:00,
2013-09-11 04:12:00,70.0,70.0,-100.00,NNE,26,2.0,5.0,100,0.03,,,0.06,0.000000,,2013-09-11 09:12:00,
2013-09-11 04:21:00,70.0,70.0,-100.00,NNE,26,2.0,5.0,100,0.03,,,0.06,0.000000,,2013-09-11 09:21:00,
2013-09-11 04:33:00,70.0,70.0,-100.00,NNE,26,2.0,5.0,100,0.03,,,0.06,0.000000,,2013-09-11 09:33:00,
2013-09-11 04:43:00,70.0,70.0,-100.00,NNE,26,2.0,5.0,100,0.03,,,0.06,0.000000,,2013-09-11 09:43:00,
2013-09-11 05:13:00,70.0,70.0,-100.00,WSW,248,0.0,3.0,100,0.00,,,0.06,0.000000,,2013-09-11 10:13:00,
2013-09-11 05:23:00,70.0,70.0,-100.00,WSW,248,0.0,3.0,100,0.00,,,0.06,0.000000,,2013-09-11 10:23:00,
2013-09-11 05:33:00,70.0,70.0,-100.00,WSW,248,0.0,3.0,100,0.00,,,0.06,0.000000,,2013-09-11 10:33:00,
2013-09-11 05:42:00,70.0,70.0,-100.00,WSW,248,0.0,3.0,100,0.00,,,0.06,0.000000,,2013-09-11 10:42:00,
2013-09-11 06:12:00,70.0,70.0,-100.00,SSW,205,3.0,6.0,100,0.00,,,0.06,0.000000,,2013-09-11 11:12:00,
2013-09-11 06:21:00,70.0,70.0,-100.00,SSW,205,3.0,6.0,100,0.00,,,0.06,0.000000,,2013-09-11 11:21:00,
2013-09-11 06:33:00,70.0,70.0,-100.00,SSW,205,3.0,6.0,100,0.00,,,0.06,0.000000,,2013-09-11 11:33:00,
2013-09-11 06:42:00,70.0,70.0,-100.00,SSW,205,3.0,6.0,100,0.00,,,0.06,0.000000,,2013-09-11 11:42:00,
2013-09-11 07:11:00,69.0,69.0,-100.00,SW,214,0.0,6.0,100,0.00,,,-99.99,0.000000,,2013-09-11 12:11:00,
2013-09-11 07:21:00,69.0,69.0,-100.00,SW,214,0.0,6.0,100,0.00,,,-99.99,0.000000,,2013-09-11 12:21:00,
2013-09-11 07:32:00,69.0,69.0,-100.00,SW,214,0.0,6.0,100,0.00,,,-99.99,0.000000,,2013-09-11 12:32:00,
2013-09-11 07:42:00,69.0,69.0,-100.00,SW,214,0.0,6.0,100,0.00,,,-99.99,0.000000,,2013-09-11 12:42:00,
2013-09-11 08:12:00,69.0,69.0,-100.00,WNW,289,1.0,2.0,100,0.01,,,-99.99,12.000000,,2013-09-11 13:12:00,
2013-09-11 08:22:00,69.0,69.0,-100.00,WNW,289,1.0,2.0,100,0.01,,,-99.99,12.000000,,2013-09-11 13:22:00,
2013-09-11 08:32:00,69.0,69.0,-100.00,WNW,289,1.0,2.0,100,0.01,,,-99.99,12.000000,,2013-09-11 13:32:00,
2013-09-11 08:42:00,69.0,69.0,-100.00,WNW,289,1.0,2.0,100,0.01,,,-99.99,12.000000,,2013-09-11 13:42:00,
2013-09-11 09:11:00,73.0,73.0,-100.00,WSW,243,1.0,2.0,99,0.00,,,0.07,137.000000,,2013-09-11 14:11:00,
2013-09-11 09:22:00,73.0,73.0,-100.00,WSW,243,1.0,2.0,99,0.00,,,0.07,137.000000,,2013-09-11 14:22:00,
2013-09-11 09:32:00,73.0,73.0,-100.00,WSW,243,1.0,2.0,99,0.00,,,0.07,137.000000,,2013-09-11 14:32:00,
2013-09-11 09:42:00,73.0,73.0,-100.00,WSW,243,1.0,2.0,99,0.00,,,0.07,137.000000,,2013-09-11 14:42:00,
2013-09-11 10:11:00,74.0,72.0,-100.00,NW,307,3.0,5.0,94,0.00,,,0.07,231.000000,,2013-09-11 15:11:00,
2013-09-11 10:22:00,74.0,72.0,-100.00,NW,307,3.0,5.0,94,0.00,,,0.07,231.000000,,2013-09-11 15:22:00,
2013-09-11 10:33:00,74.0,72.0,-100.00,NW,307,3.0,5.0,94,0.00,,,0.07,231.000000,,2013-09-11 15:33:00,
2013-09-11 10:43:00,74.0,72.0,-100.00,NW,307,3.0,5.0,94,0.00,,,0.07,231.000000,,2013-09-11 15:43:00,
2013-09-11 11:23:00,78.0,73.0,-100.00,NNE,24,3.0,7.0,86,0.00,,,0.07,370.000000,,2013-09-11 16:23:00,
2013-09-11 11:33:00,78.0,73.0,-100.00,NNE,24,3.0,7.0,86,0.00,,,0.07,370.000000,,2013-09-11 16:33:00,
2013-09-11 11:43:00,78.0,73.0,-100.00,NNE,24,3.0,7.0,86,0.00,,,0.07,370.000000,,2013-09-11 16:43:00,
2013-09-11 12:12:00,81.0,70.0,-100.00,NNE,12,3.0,7.0,69,0.00,,,0.07,658.000000,,2013-09-11 17:12:00,
2013-09-11 12:23:00,81.0,70.0,-100.00,NNE,12,3.0,7.0,69,0.00,,,0.07,658.000000,,2013-09-11 17:23:00,
2013-09-11 12:34:00,81.0,70.0,-100.00,NNE,12,3.0,7.0,69,0.00,,,0.07,658.000000,,2013-09-11 17:34:00,
2013-09-11 12:43:00,81.0,70.0,-100.00,NNE,12,3.0,7.0,69,0.00,,,0.07,658.000000,,2013-09-11 17:43:00,
2013-09-11 13:12:00,84.0,69.0,-100.00,NNE,15,3.0,8.0,60,0.00,,,0.07,801.000000,,2013-09-11 18:12:00,
2013-09-11 13:22:00,84.0,69.0,-100.00,NNE,15,3.0,8.0,60,0.00,,,0.07,801.000000,,2013-09-11 18:22:00,
2013-09-11 13:32:00,84.0,69.0,-100.00,NNE,15,3.0,8.0,60,0.00,,,0.07,801.000000,,2013-09-11 18:32:00,
2013-09-11 13:42:00,84.0,69.0,-100.00,NNE,15,3.0,8.0,60,0.00,,,0.07,801.000000,,2013-09-11 18:42:00,
2013-09-11 14:11:00,85.0,68.0,-100.00,North,354,3.0,7.0,57,0.00,,,0.07,822.000000,,2013-09-11 19:11:00,
2013-09-11 14:22:00,85.0,68.0,-100.00,North,354,3.0,7.0,57,0.00,,,0.07,822.000000,,2013-09-11 19:22:00,
2013-09-11 14:32:00,85.0,68.0,-100.00,North,354,3.0,7.0,57,0.00,,,0.07,822.000000,,2013-09-11 19:32:00,
2013-09-11 14:42:00,85.0,68.0,-100.00,North,354,3.0,7.0,57,0.00,,,0.07,822.000000,,2013-09-11 19:42:00,
2013-09-11 15:12:00,85.0,66.0,-100.00,NNE,14,4.0,8.0,54,0.00,,,0.07,665.000000,,2013-09-11 20:12:00,
2013-09-11 15:22:00,85.0,66.0,-100.00,NNE,14,4.0,8.0,54,0.00,,,0.07,665.000000,,2013-09-11 20:22:00,
2013-09-11 15:32:00,85.0,66.0,-100.00,NNE,14,4.0,8.0,54,0.00,,,0.07,665.000000,,2013-09-11 20:32:00,
2013-09-11 15:42:00,85.0,66.0,-100.00,NNE,14,4.0,8.0,54,0.00,,,0.07,665.000000,,2013-09-11 20:42:00,
2013-09-11 16:12:00,82.0,68.0,-100.00,NNW,337,3.0,8.0,62,0.00,,,0.07,353.000000,,2013-09-11 21:12:00,
2013-09-11 16:22:00,82.0,68.0,-100.00,NNW,337,3.0,8.0,62,0.00,,,0.07,353.000000,,2013-09-11 21:22:00,
2013-09-11 16:34:00,82.0,68.0,-100.00,NNW,337,3.0,8.0,62,0.00,,,0.07,353.000000,,2013-09-11 21:34:00,
2013-09-11 16:44:00,82.0,68.0,-100.00,NNW,337,3.0,8.0,62,0.00,,,0.07,353.000000,,2013-09-11 21:44:00,
2013-09-11 17:13:00,82.0,67.0,-100.00,NNW,348,2.0,6.0,60,0.00,,,0.07,274.000000,,2013-09-11 22:13:00,
2013-09-11 17:24:00,82.0,67.0,-100.00,NNW,348,2.0,6.0,60,0.00,,,0.07,274.000000,,2013-09-11 22:24:00,
2013-09-11 17:33:00,82.0,67.0,-100.00,NNW,348,2.0,6.0,60,0.00,,,0.07,274.000000,,2013-09-11 22:33:00,
2013-09-11 17:43:00,82.0,67.0,-100.00,NNW,348,2.0,6.0,60,0.00,,,0.07,274.000000,,2013-09-11 22:43:00,
2013-09-11 18:12:00,81.0,69.0,-100.00,North,3,1.0,3.0,68,0.00,,,0.07,166.000000,,2013-09-11 23:12:00,
2013-09-11 18:22:00,81.0,69.0,-100.00,North,3,1.0,3.0,68,0.00,,,0.07,166.000000,,2013-09-11 23:22:00,
2013-09-11 18:34:00,81.0,69.0,-100.00,North,3,1.0,3.0,68,0.00,,,0.07,166.000000,,2013-09-11 23:34:00,
2013-09-11 18:42:00,81.0,69.0,-100.00,North,3,1.0,3.0,68,0.00,,,0.07,166.000000,,2013-09-11 23:42:00,
2013-09-11 19:11:00,78.0,69.0,-100.00,North,350,0.0,3.0,75,0.00,,,0.07,82.000000,,2013-09-12 00:11:00,
2013-09-11 19:22:00,78.0,69.0,-100.00,North,350,0.0,3.0,75,0.00,,,0.07,82.000000,,2013-09-12 00:22:00,
2013-09-11 19:32:00,78.0,69.0,-100.00,North,350,0.0,3.0,75,0.00,,,0.07,82.000000,,2013-09-12 00:32:00,
2013-09-11 19:42:00,78.0,69.0,-100.00,North,350,0.0,3.0,75,0.00,,,0.07,82.000000,,2013-09-12 00:42:00,
2013-09-11 20:11:00,74.0,70.0,-100.00,North,350,0.0,3.0,86,0.00,,,0.07,21.000000,,2013-09-12 01:11:00,
2013-09-11 20:22:00,74.0,70.0,-100.00,North,350,0.0,3.0,86,0.00,,,0.07,21.000000,,2013-09-12 01:22:00,
2013-09-11 20:32:00,74.0,70.0,-100.00,North,350,0.0,3.0,86,0.00,,,0.07,21.000000,,2013-09-12 01:32:00,
2013-09-11 20:42:00,74.0,70.0,-100.00,North,350,0.0,3.0,86,0.00,,,0.07,21.000000,,2013-09-12 01:42:00,
2013-09-11 21:12:00,73.0,70.0,-100.00,NNW,338,0.0,2.0,89,0.00,,,0.07,0.000000,,2013-09-12 02:12:00,
2013-09-11 21:22:00,73.0,70.0,-100.00,NNW,338,0.0,2.0,89,0.00,,,0.07,0.000000,,2013-09-12 02:22:00,
2013-09-11 21:33:00,73.0,70.0,-100.00,NNW,338,0.0,2.0,89,0.00,,,0.07,0.000000,,2013-09-12 02:33:00,
2013-09-11 21:42:00,73.0,70.0,-100.00,NNW,338,0.0,2.0,89,0.00,,,0.07,0.000000,,2013-09-12 02:42:00,
2013-09-11 22:11:00,71.0,69.0,-100.00,NW,310,0.0,2.0,92,0.00,,,0.07,0.000000,,2013-09-12 03:11:00,
2013-09-11 22:22:00,71.0,69.0,-100.00,NW,310,0.0,2.0,92,0.00,,,0.07,0.000000,,2013-09-12 03:22:00,
2013-09-11 22:34:00,71.0,69.0,-100.00,NW,310,0.0,2.0,92,0.00,,,0.07,0.000000,,2013-09-12 03:34:00,
2013-09-11 22:45:00,71.0,69.0,-100.00,NW,310,0.0,2.0,92,0.00,,,0.07,0.000000,,2013-09-12 03:45:00,
2013-09-11 23:14:00,72.0,69.0,-100.00,WNW,291,2.0,4.0,91,0.00,,,0.07,0.000000,,2013-09-12 04:14:00,
2013-09-11 23:24:00,72.0,69.0,-100.00,WNW,291,2.0,4.0,91,0.00,,,0.07,0.000000,,2013-09-12 04:24:00,
2013-09-11 23:34:00,72.0,69.0,-100.00,WNW,291,2.0,4.0,91,0.00,,,0.07,0.000000,,2013-09-12 04:34:00,
2013-09-11 23:44:00,72.0,69.0,-100.00,WNW,291,2.0,4.0,91,0.00,,,0.07,0.000000,,2013-09-12 04:44:00,